Terminal Aerodrome Forecast
Issued by NWS

Home | Current Version | Previous Version | Text Only | Print | Product List | Glossary On
Versions: 1 2 3 4 5 6 7 8 9 10 11 12 13 14 15
854
FTUS45 KABQ 232337
TAFSAF
TAF
KSAF 232337Z 2400/2424 22016G24KT P6SM BKN080
     FM240200 21014KT P6SM BKN060
     FM240600 22014KT 4SM -SN OVC025
      TEMPO 2407/2411 2SM -SN OVC009
     FM241300 25011KT P6SM OVC025
     FM241600 24013KT P6SM OVC040
     FM241900 26022G30KT P6SM VCSH BKN045=

USA.gov is the U.S. government's official web portal to all federal, state and local government web resources and services.